sensor_id;sensor_type;location;lat;lon;timestamp;temperature;humidity
1570;DHT22;778;50.120;8.698;2023-04-07T00:01:45;8.50;99.90
1570;DHT22;778;50.120;8.698;2023-04-07T00:04:14;8.60;99.90
1570;DHT22;778;50.120;8.698;2023-04-07T00:06:44;8.50;99.90
1570;DHT22;778;50.120;8.698;2023-04-07T00:09:12;8.50;99.90
1570;DHT22;778;50.120;8.698;2023-04-07T00:11:41;8.30;99.90
1570;DHT22;778;50.120;8.698;2023-04-07T00:14:09;8.30;99.90
1570;DHT22;778;50.120;8.698;2023-04-07T00:16:37;8.20;99.90
1570;DHT22;778;50.120;8.698;2023-04-07T00:19:06;8.20;99.90
1570;DHT22;778;50.120;8.698;2023-04-07T00:21:34;8.20;99.90
1570;DHT22;778;50.120;8.698;2023-04-07T00:24:04;8.30;99.90
1570;DHT22;778;50.120;8.698;2023-04-07T00:26:33;8.30;99.90
1570;DHT22;778;50.120;8.698;2023-04-07T00:29:02;8.30;99.90
1570;DHT22;778;50.120;8.698;2023-04-07T00:31:30;8.30;99.90
1570;DHT22;778;50.120;8.698;2023-04-07T00:33:59;8.30;99.90
1570;DHT22;778;50.120;8.698;2023-04-07T00:36:27;8.30;99.90
1570;DHT22;778;50.120;8.698;2023-04-07T00:38:56;8.20;99.90
1570;DHT22;778;50.120;8.698;2023-04-07T00:41:25;8.40;99.90
1570;DHT22;778;50.120;8.698;2023-04-07T00:43:54;8.30;99.90
1570;DHT22;778;50.120;8.698;2023-04-07T00:46:22;8.20;99.90
1570;DHT22;778;50.120;8.698;2023-04-07T00:48:51;8.20;99.90
1570;DHT22;778;50.120;8.698;2023-04-07T00:51:20;8.10;99.90
1570;DHT22;778;50.120;8.698;2023-04-07T00:53:49;8.20;99.90
1570;DHT22;778;50.120;8.698;2023-04-07T00:56:18;8.20;99.90
1570;DHT22;778;50.120;8.698;2023-04-07T00:58:48;8.20;99.90
1570;DHT22;778;50.120;8.698;2023-04-07T01:01:21;8.10;99.90
1570;DHT22;778;50.120;8.698;2023-04-07T01:03:57;8.10;99.90
1570;DHT22;778;50.120;8.698;2023-04-07T01:06:34;8.00;99.90
1570;DHT22;778;50.120;8.698;2023-04-07T01:09:18;8.00;99.90
1570;DHT22;778;50.120;8.698;2023-04-07T01:11:54;8.00;99.90
1570;DHT22;778;50.120;8.698;2023-04-07T01:14:37;7.90;99.90
1570;DHT22;778;50.120;8.698;2023-04-07T01:17:27;7.90;99.90
1570;DHT22;778;50.120;8.698;2023-04-07T01:20:01;7.80;99.90
1570;DHT22;778;50.120;8.698;2023-04-07T01:22:39;7.80;99.90
1570;DHT22;778;50.120;8.698;2023-04-07T01:25:37;7.70;99.90
1570;DHT22;778;50.120;8.698;2023-04-07T01:28:55;7.70;99.90
1570;DHT22;778;50.120;8.698;2023-04-07T01:31:42;7.70;99.90
1570;DHT22;778;50.120;8.698;2023-04-07T01:34:12;7.80;99.90
1570;DHT22;778;50.120;8.698;2023-04-07T01:36:41;7.80;99.90
1570;DHT22;778;50.120;8.698;2023-04-07T01:39:12;7.70;99.90
1570;DHT22;778;50.120;8.698;2023-04-07T01:41:41;7.60;99.90
1570;DHT22;778;50.120;8.698;2023-04-07T01:44:10;7.60;99.90
1570;DHT22;778;50.120;8.698;2023-04-07T01:46:41;7.60;99.90
1570;DHT22;778;50.120;8.698;2023-04-07T01:49:10;7.80;99.90
1570;DHT22;778;50.120;8.698;2023-04-07T01:51:40;7.90;99.90
1570;DHT22;778;50.120;8.698;2023-04-07T01:54:09;7.90;99.90
1570;DHT22;778;50.120;8.698;2023-04-07T01:56:38;7.80;99.90
1570;DHT22;778;50.120;8.698;2023-04-07T01:59:06;7.70;99.90
1570;DHT22;778;50.120;8.698;2023-04-07T02:01:35;7.70;99.90
1570;DHT22;778;50.120;8.698;2023-04-07T02:04:11;7.70;99.90
1570;DHT22;778;50.120;8.698;2023-04-07T02:06:45;7.60;99.90
1570;DHT22;778;50.120;8.698;2023-04-07T02:09:20;7.60;99.90
1570;DHT22;778;50.120;8.698;2023-04-07T02:11:51;7.60;99.90
1570;DHT22;778;50.120;8.698;2023-04-07T02:14:22;7.60;99.90
1570;DHT22;778;50.120;8.698;2023-04-07T02:17:02;7.60;99.90
1570;DHT22;778;50.120;8.698;2023-04-07T02:19:32;7.50;99.90
1570;DHT22;778;50.120;8.698;2023-04-07T02:22:02;7.50;99.90
1570;DHT22;778;50.120;8.698;2023-04-07T02:24:32;7.60;99.90
1570;DHT22;778;50.120;8.698;2023-04-07T02:27:00;7.60;99.90
1570;DHT22;778;50.120;8.698;2023-04-07T02:29:29;7.50;99.90
1570;DHT22;778;50.120;8.698;2023-04-07T02:31:57;7.50;99.90
1570;DHT22;778;50.120;8.698;2023-04-07T02:34:28;7.50;99.90
1570;DHT22;778;50.120;8.698;2023-04-07T02:36:58;7.40;99.90
1570;DHT22;778;50.120;8.698;2023-04-07T02:39:26;7.40;99.90
1570;DHT22;778;50.120;8.698;2023-04-07T02:41:55;7.40;99.90
1570;DHT22;778;50.120;8.698;2023-04-07T02:44:23;7.40;99.90
1570;DHT22;778;50.120;8.698;2023-04-07T02:46:52;7.50;99.90
1570;DHT22;778;50.120;8.698;2023-04-07T02:49:22;7.40;99.90
1570;DHT22;778;50.120;8.698;2023-04-07T02:51:51;7.40;99.90
1570;DHT22;778;50.120;8.698;2023-04-07T02:54:21;7.40;99.90
1570;DHT22;778;50.120;8.698;2023-04-07T02:56:49;7.40;99.90
1570;DHT22;778;50.120;8.698;2023-04-07T02:59:17;7.50;99.90
1570;DHT22;778;50.120;8.698;2023-04-07T03:01:46;7.40;99.90
1570;DHT22;778;50.120;8.698;2023-04-07T03:04:16;7.50;99.90
1570;DHT22;778;50.120;8.698;2023-04-07T03:06:44;7.50;99.90
1570;DHT22;778;50.120;8.698;2023-04-07T03:09:14;7.40;99.90
1570;DHT22;778;50.120;8.698;2023-04-07T03:11:44;7.30;99.90
1570;DHT22;778;50.120;8.698;2023-04-07T03:14:13;7.40;99.90
1570;DHT22;778;50.120;8.698;2023-04-07T03:16:45;7.40;99.90
1570;DHT22;778;50.120;8.698;2023-04-07T03:19:14;7.40;99.90
1570;DHT22;778;50.120;8.698;2023-04-07T03:21:47;7.40;99.90
1570;DHT22;778;50.120;8.698;2023-04-07T03:24:16;7.50;99.90
1570;DHT22;778;50.120;8.698;2023-04-07T03:26:47;7.50;99.90
1570;DHT22;778;50.120;8.698;2023-04-07T03:29:22;7.50;99.90
1570;DHT22;778;50.120;8.698;2023-04-07T03:31:51;7.50;99.90
1570;DHT22;778;50.120;8.698;2023-04-07T03:34:23;7.50;99.90
1570;DHT22;778;50.120;8.698;2023-04-07T03:36:51;7.40;99.90
1570;DHT22;778;50.120;8.698;2023-04-07T03:39:20;7.40;99.90
1570;DHT22;778;50.120;8.698;2023-04-07T03:41:54;7.40;99.90
1570;DHT22;778;50.120;8.698;2023-04-07T03:44:26;7.40;99.90
1570;DHT22;778;50.120;8.698;2023-04-07T03:46:55;7.40;99.90
1570;DHT22;778;50.120;8.698;2023-04-07T03:49:25;7.40;99.90
1570;DHT22;778;50.120;8.698;2023-04-07T03:51:55;7.40;99.90
1570;DHT22;778;50.120;8.698;2023-04-07T03:54:23;7.40;99.90
1570;DHT22;778;50.120;8.698;2023-04-07T03:56:53;7.40;99.90
1570;DHT22;778;50.120;8.698;2023-04-07T03:59:22;7.40;99.90
1570;DHT22;778;50.120;8.698;2023-04-07T04:01:57;7.40;99.90
1570;DHT22;778;50.120;8.698;2023-04-07T04:04:26;7.40;99.90
1570;DHT22;778;50.120;8.698;2023-04-07T04:06:54;7.30;99.90
1570;DHT22;778;50.120;8.698;2023-04-07T04:09:43;7.30;99.90
1570;DHT22;778;50.120;8.698;2023-04-07T04:12:13;7.30;99.90
1570;DHT22;778;50.120;8.698;2023-04-07T04:14:50;7.30;99.90
1570;DHT22;778;50.120;8.698;2023-04-07T04:17:19;7.30;99.90
1570;DHT22;778;50.120;8.698;2023-04-07T04:19:48;7.30;99.90
1570;DHT22;778;50.120;8.698;2023-04-07T04:22:22;7.30;99.90
1570;DHT22;778;50.120;8.698;2023-04-07T04:24:54;7.40;99.90
1570;DHT22;778;50.120;8.698;2023-04-07T04:27:25;7.40;99.90
1570;DHT22;778;50.120;8.698;2023-04-07T04:30:04;7.30;99.90
1570;DHT22;778;50.120;8.698;2023-04-07T04:32:38;7.30;99.90
1570;DHT22;778;50.120;8.698;2023-04-07T04:35:08;7.30;99.90
1570;DHT22;778;50.120;8.698;2023-04-07T04:37:46;7.30;99.90
1570;DHT22;778;50.120;8.698;2023-04-07T04:40:14;7.30;99.90
1570;DHT22;778;50.120;8.698;2023-04-07T04:42:48;7.20;99.90
1570;DHT22;778;50.120;8.698;2023-04-07T04:45:17;7.20;99.90
1570;DHT22;778;50.120;8.698;2023-04-07T04:47:47;7.20;99.90
1570;DHT22;778;50.120;8.698;2023-04-07T04:50:16;7.20;99.90
1570;DHT22;778;50.120;8.698;2023-04-07T04:52:45;7.10;99.90
1570;DHT22;778;50.120;8.698;2023-04-07T04:55:21;7.20;99.90
1570;DHT22;778;50.120;8.698;2023-04-07T04:57:52;7.20;99.90
1570;DHT22;778;50.120;8.698;2023-04-07T05:00:31;7.10;99.90
1570;DHT22;778;50.120;8.698;2023-04-07T05:03:03;7.20;99.90
1570;DHT22;778;50.120;8.698;2023-04-07T05:05:36;7.10;99.90
1570;DHT22;778;50.120;8.698;2023-04-07T05:08:05;7.10;99.90
1570;DHT22;778;50.120;8.698;2023-04-07T05:10:37;7.10;99.90
1570;DHT22;778;50.120;8.698;2023-04-07T05:13:12;7.20;99.90
1570;DHT22;778;50.120;8.698;2023-04-07T05:15:41;7.10;99.90
1570;DHT22;778;50.120;8.698;2023-04-07T05:18:12;7.10;99.90
1570;DHT22;778;50.120;8.698;2023-04-07T05:20:40;7.10;99.90
1570;DHT22;778;50.120;8.698;2023-04-07T05:23:10;7.10;99.90
1570;DHT22;778;50.120;8.698;2023-04-07T05:25:39;7.10;99.90
1570;DHT22;778;50.120;8.698;2023-04-07T05:28:07;7.10;99.90
1570;DHT22;778;50.120;8.698;2023-04-07T05:30:38;7.20;99.90
1570;DHT22;778;50.120;8.698;2023-04-07T05:33:06;7.20;99.90
1570;DHT22;778;50.120;8.698;2023-04-07T05:35:48;7.20;99.90
1570;DHT22;778;50.120;8.698;2023-04-07T05:38:16;7.20;99.90
1570;DHT22;778;50.120;8.698;2023-04-07T05:40:45;7.20;99.90
1570;DHT22;778;50.120;8.698;2023-04-07T05:43:21;7.10;99.90
1570;DHT22;778;50.120;8.698;2023-04-07T05:45:51;7.10;99.90
1570;DHT22;778;50.120;8.698;2023-04-07T05:48:20;7.10;99.90
1570;DHT22;778;50.120;8.698;2023-04-07T05:50:49;7.10;99.90
1570;DHT22;778;50.120;8.698;2023-04-07T05:53:18;7.10;99.90
1570;DHT22;778;50.120;8.698;2023-04-07T05:55:47;7.10;99.90
1570;DHT22;778;50.120;8.698;2023-04-07T05:58:27;7.10;99.90
1570;DHT22;778;50.120;8.698;2023-04-07T06:00:58;7.10;99.90
1570;DHT22;778;50.120;8.698;2023-04-07T06:03:27;7.20;99.90
1570;DHT22;778;50.120;8.698;2023-04-07T06:06:03;7.20;99.90
1570;DHT22;778;50.120;8.698;2023-04-07T06:08:32;7.10;99.90
1570;DHT22;778;50.120;8.698;2023-04-07T06:11:00;7.20;99.90
1570;DHT22;778;50.120;8.698;2023-04-07T06:13:29;7.20;99.90
1570;DHT22;778;50.120;8.698;2023-04-07T06:15:59;7.20;99.90
1570;DHT22;778;50.120;8.698;2023-04-07T06:18:27;7.20;99.90
1570;DHT22;778;50.120;8.698;2023-04-07T06:20:56;7.20;99.90
1570;DHT22;778;50.120;8.698;2023-04-07T06:23:25;7.20;99.90
1570;DHT22;778;50.120;8.698;2023-04-07T06:25:53;7.10;99.90
1570;DHT22;778;50.120;8.698;2023-04-07T06:28:22;7.20;99.90
1570;DHT22;778;50.120;8.698;2023-04-07T06:30:50;7.20;99.90
1570;DHT22;778;50.120;8.698;2023-04-07T06:33:20;7.20;99.90
1570;DHT22;778;50.120;8.698;2023-04-07T06:35:51;7.20;99.90
1570;DHT22;778;50.120;8.698;2023-04-07T06:38:20;7.20;99.90
1570;DHT22;778;50.120;8.698;2023-04-07T06:40:48;7.20;99.90
1570;DHT22;778;50.120;8.698;2023-04-07T06:43:17;7.20;99.90
1570;DHT22;778;50.120;8.698;2023-04-07T06:45:54;7.20;99.90
1570;DHT22;778;50.120;8.698;2023-04-07T06:48:24;7.20;99.90
1570;DHT22;778;50.120;8.698;2023-04-07T06:50:53;7.30;99.90
1570;DHT22;778;50.120;8.698;2023-04-07T06:53:21;7.30;99.90
1570;DHT22;778;50.120;8.698;2023-04-07T06:55:50;7.30;99.90
1570;DHT22;778;50.120;8.698;2023-04-07T06:58:18;7.30;99.90
1570;DHT22;778;50.120;8.698;2023-04-07T07:00:46;7.30;99.90
1570;DHT22;778;50.120;8.698;2023-04-07T07:03:15;7.40;99.90
1570;DHT22;778;50.120;8.698;2023-04-07T07:05:45;7.40;99.90
1570;DHT22;778;50.120;8.698;2023-04-07T07:08:16;7.40;99.90
1570;DHT22;778;50.120;8.698;2023-04-07T07:10:44;7.40;99.90
1570;DHT22;778;50.120;8.698;2023-04-07T07:13:13;7.30;99.90
1570;DHT22;778;50.120;8.698;2023-04-07T07:15:41;7.30;99.90
1570;DHT22;778;50.120;8.698;2023-04-07T07:18:10;7.30;99.90
1570;DHT22;778;50.120;8.698;2023-04-07T07:20:39;7.30;99.90
1570;DHT22;778;50.120;8.698;2023-04-07T07:23:09;7.30;99.90
1570;DHT22;778;50.120;8.698;2023-04-07T07:25:37;7.30;99.90
1570;DHT22;778;50.120;8.698;2023-04-07T07:28:06;7.30;99.90
1570;DHT22;778;50.120;8.698;2023-04-07T07:30:37;7.40;99.90
1570;DHT22;778;50.120;8.698;2023-04-07T07:33:06;7.30;99.90
1570;DHT22;778;50.120;8.698;2023-04-07T07:35:35;7.40;99.90
1570;DHT22;778;50.120;8.698;2023-04-07T07:38:04;7.40;99.90
1570;DHT22;778;50.120;8.698;2023-04-07T07:40:34;7.40;99.90
1570;DHT22;778;50.120;8.698;2023-04-07T07:43:02;7.50;99.90
1570;DHT22;778;50.120;8.698;2023-04-07T07:45:31;7.60;99.90
1570;DHT22;778;50.120;8.698;2023-04-07T07:48:00;7.70;99.90
1570;DHT22;778;50.120;8.698;2023-04-07T07:50:29;7.70;99.90
1570;DHT22;778;50.120;8.698;2023-04-07T07:52:58;7.70;99.90
1570;DHT22;778;50.120;8.698;2023-04-07T07:55:26;7.70;99.90
1570;DHT22;778;50.120;8.698;2023-04-07T07:57:56;7.80;99.90
1570;DHT22;778;50.120;8.698;2023-04-07T08:00:24;7.80;99.90
1570;DHT22;778;50.120;8.698;2023-04-07T08:02:53;7.90;99.90
1570;DHT22;778;50.120;8.698;2023-04-07T08:05:22;7.90;99.90
1570;DHT22;778;50.120;8.698;2023-04-07T08:07:51;7.90;99.90
1570;DHT22;778;50.120;8.698;2023-04-07T08:10:21;7.90;99.90
1570;DHT22;778;50.120;8.698;2023-04-07T08:12:51;8.00;99.90
1570;DHT22;778;50.120;8.698;2023-04-07T08:15:20;7.90;99.90
1570;DHT22;778;50.120;8.698;2023-04-07T08:17:49;7.90;99.90
1570;DHT22;778;50.120;8.698;2023-04-07T08:20:20;7.90;99.90
1570;DHT22;778;50.120;8.698;2023-04-07T08:22:49;8.00;99.90
1570;DHT22;778;50.120;8.698;2023-04-07T08:25:18;7.90;99.90
1570;DHT22;778;50.120;8.698;2023-04-07T08:27:46;8.00;99.90
1570;DHT22;778;50.120;8.698;2023-04-07T08:30:15;8.00;99.90
1570;DHT22;778;50.120;8.698;2023-04-07T08:32:44;8.00;99.90
1570;DHT22;778;50.120;8.698;2023-04-07T08:35:13;8.00;99.90
1570;DHT22;778;50.120;8.698;2023-04-07T08:37:41;8.00;99.90
1570;DHT22;778;50.120;8.698;2023-04-07T08:40:11;8.00;99.90
1570;DHT22;778;50.120;8.698;2023-04-07T08:42:40;8.00;99.90
1570;DHT22;778;50.120;8.698;2023-04-07T08:45:10;8.00;99.90
1570;DHT22;778;50.120;8.698;2023-04-07T08:47:40;8.10;99.90
1570;DHT22;778;50.120;8.698;2023-04-07T08:50:16;8.10;99.90
1570;DHT22;778;50.120;8.698;2023-04-07T08:52:49;8.10;99.90
1570;DHT22;778;50.120;8.698;2023-04-07T08:55:18;8.20;99.90
1570;DHT22;778;50.120;8.698;2023-04-07T08:57:47;8.20;99.90
1570;DHT22;778;50.120;8.698;2023-04-07T09:00:16;8.10;99.90
1570;DHT22;778;50.120;8.698;2023-04-07T09:02:44;8.20;99.90
1570;DHT22;778;50.120;8.698;2023-04-07T09:05:16;8.20;99.90
1570;DHT22;778;50.120;8.698;2023-04-07T09:07:45;8.30;99.90
1570;DHT22;778;50.120;8.698;2023-04-07T09:10:13;8.40;99.90
1570;DHT22;778;50.120;8.698;2023-04-07T09:12:43;8.40;99.90
1570;DHT22;778;50.120;8.698;2023-04-07T09:15:11;8.40;99.90
1570;DHT22;778;50.120;8.698;2023-04-07T09:17:40;8.50;99.90
1570;DHT22;778;50.120;8.698;2023-04-07T09:20:09;8.50;99.90
1570;DHT22;778;50.120;8.698;2023-04-07T09:22:41;8.50;99.90
1570;DHT22;778;50.120;8.698;2023-04-07T09:25:13;8.50;99.90
1570;DHT22;778;50.120;8.698;2023-04-07T09:27:56;8.50;99.90
1570;DHT22;778;50.120;8.698;2023-04-07T09:30:26;8.50;99.90
1570;DHT22;778;50.120;8.698;2023-04-07T09:32:56;8.50;99.90
1570;DHT22;778;50.120;8.698;2023-04-07T09:35:24;8.60;99.90
1570;DHT22;778;50.120;8.698;2023-04-07T09:38:07;8.60;99.90
1570;DHT22;778;50.120;8.698;2023-04-07T09:40:36;8.60;99.90
1570;DHT22;778;50.120;8.698;2023-04-07T09:43:05;8.60;99.90
1570;DHT22;778;50.120;8.698;2023-04-07T09:45:33;8.60;99.90
1570;DHT22;778;50.120;8.698;2023-04-07T09:48:06;8.50;99.90
1570;DHT22;778;50.120;8.698;2023-04-07T09:50:38;8.50;99.90
1570;DHT22;778;50.120;8.698;2023-04-07T09:53:09;8.50;99.90
1570;DHT22;778;50.120;8.698;2023-04-07T09:55:38;8.50;99.90
1570;DHT22;778;50.120;8.698;2023-04-07T09:58:10;8.50;99.90
1570;DHT22;778;50.120;8.698;2023-04-07T10:00:40;8.60;99.90
1570;DHT22;778;50.120;8.698;2023-04-07T10:03:09;8.60;99.90
1570;DHT22;778;50.120;8.698;2023-04-07T10:05:38;8.60;99.90
1570;DHT22;778;50.120;8.698;2023-04-07T10:08:08;8.70;99.90
1570;DHT22;778;50.120;8.698;2023-04-07T10:10:40;8.70;99.90
1570;DHT22;778;50.120;8.698;2023-04-07T10:13:09;8.60;99.90
1570;DHT22;778;50.120;8.698;2023-04-07T10:15:38;8.60;99.90
1570;DHT22;778;50.120;8.698;2023-04-07T10:18:07;8.50;99.90
1570;DHT22;778;50.120;8.698;2023-04-07T10:20:39;8.60;99.90
1570;DHT22;778;50.120;8.698;2023-04-07T10:23:15;8.60;99.90
1570;DHT22;778;50.120;8.698;2023-04-07T10:25:46;8.60;99.90
1570;DHT22;778;50.120;8.698;2023-04-07T10:28:17;8.60;99.90
1570;DHT22;778;50.120;8.698;2023-04-07T10:30:47;8.60;99.90
1570;DHT22;778;50.120;8.698;2023-04-07T10:33:16;8.60;99.90
1570;DHT22;778;50.120;8.698;2023-04-07T10:36:05;8.60;99.90
1570;DHT22;778;50.120;8.698;2023-04-07T10:38:35;8.60;99.90
1570;DHT22;778;50.120;8.698;2023-04-07T10:41:31;8.60;99.90
1570;DHT22;778;50.120;8.698;2023-04-07T10:44:00;8.70;99.90
1570;DHT22;778;50.120;8.698;2023-04-07T10:47:01;8.70;99.90
1570;DHT22;778;50.120;8.698;2023-04-07T10:49:31;8.70;99.90
1570;DHT22;778;50.120;8.698;2023-04-07T10:52:21;8.70;99.90
1570;DHT22;778;50.120;8.698;2023-04-07T10:58:17;8.80;99.90
1570;DHT22;778;50.120;8.698;2023-04-07T11:01:18;8.80;99.90
1570;DHT22;778;50.120;8.698;2023-04-07T11:03:58;8.80;99.90
1570;DHT22;778;50.120;8.698;2023-04-07T11:06:28;8.80;99.90
1570;DHT22;778;50.120;8.698;2023-04-07T11:08:57;8.80;99.90
1570;DHT22;778;50.120;8.698;2023-04-07T11:11:40;8.80;99.90
1570;DHT22;778;50.120;8.698;2023-04-07T11:14:08;8.80;99.90
1570;DHT22;778;50.120;8.698;2023-04-07T11:16:39;8.80;99.90
1570;DHT22;778;50.120;8.698;2023-04-07T11:19:11;8.70;99.90
1570;DHT22;778;50.120;8.698;2023-04-07T11:21:39;8.70;99.90
1570;DHT22;778;50.120;8.698;2023-04-07T11:24:08;8.70;99.90
1570;DHT22;778;50.120;8.698;2023-04-07T11:26:37;8.70;99.90
1570;DHT22;778;50.120;8.698;2023-04-07T11:29:08;8.60;99.90
1570;DHT22;778;50.120;8.698;2023-04-07T11:31:38;8.60;99.90
1570;DHT22;778;50.120;8.698;2023-04-07T11:34:07;8.60;99.90
1570;DHT22;778;50.120;8.698;2023-04-07T11:36:38;8.60;99.90
1570;DHT22;778;50.120;8.698;2023-04-07T11:39:17;8.60;99.90
1570;DHT22;778;50.120;8.698;2023-04-07T11:41:49;8.60;99.90
1570;DHT22;778;50.120;8.698;2023-04-07T11:44:17;8.70;99.90
1570;DHT22;778;50.120;8.698;2023-04-07T11:46:53;8.70;99.90
1570;DHT22;778;50.120;8.698;2023-04-07T11:49:23;8.70;99.90
1570;DHT22;778;50.120;8.698;2023-04-07T11:51:57;8.80;99.90
1570;DHT22;778;50.120;8.698;2023-04-07T11:54:27;8.80;99.90
1570;DHT22;778;50.120;8.698;2023-04-07T11:57:08;8.80;99.90
1570;DHT22;778;50.120;8.698;2023-04-07T11:59:39;8.90;99.90
1570;DHT22;778;50.120;8.698;2023-04-07T12:02:08;8.90;99.90
1570;DHT22;778;50.120;8.698;2023-04-07T12:04:36;8.80;99.90
1570;DHT22;778;50.120;8.698;2023-04-07T12:07:08;8.80;99.90
1570;DHT22;778;50.120;8.698;2023-04-07T12:09:37;8.80;99.90
1570;DHT22;778;50.120;8.698;2023-04-07T12:12:08;8.70;99.90
1570;DHT22;778;50.120;8.698;2023-04-07T12:14:37;8.70;99.90
1570;DHT22;778;50.120;8.698;2023-04-07T12:17:05;8.70;99.90
1570;DHT22;778;50.120;8.698;2023-04-07T12:19:35;8.90;99.90
1570;DHT22;778;50.120;8.698;2023-04-07T12:22:05;8.70;99.90
1570;DHT22;778;50.120;8.698;2023-04-07T12:24:34;8.70;99.90
1570;DHT22;778;50.120;8.698;2023-04-07T12:27:02;8.80;99.90
1570;DHT22;778;50.120;8.698;2023-04-07T12:29:32;8.70;99.90
1570;DHT22;778;50.120;8.698;2023-04-07T12:32:02;8.80;99.90
1570;DHT22;778;50.120;8.698;2023-04-07T12:34:31;8.80;99.90
1570;DHT22;778;50.120;8.698;2023-04-07T12:37:00;8.80;99.90
1570;DHT22;778;50.120;8.698;2023-04-07T12:39:28;8.90;99.90
1570;DHT22;778;50.120;8.698;2023-04-07T12:41:57;9.20;99.90
1570;DHT22;778;50.120;8.698;2023-04-07T12:44:25;9.30;99.90
1570;DHT22;778;50.120;8.698;2023-04-07T12:46:55;9.40;99.90
1570;DHT22;778;50.120;8.698;2023-04-07T12:49:23;9.40;99.90
1570;DHT22;778;50.120;8.698;2023-04-07T12:51:52;9.60;99.90
1570;DHT22;778;50.120;8.698;2023-04-07T12:54:20;9.60;99.90
1570;DHT22;778;50.120;8.698;2023-04-07T12:56:48;9.70;99.90
1570;DHT22;778;50.120;8.698;2023-04-07T12:59:17;9.90;99.90
1570;DHT22;778;50.120;8.698;2023-04-07T13:01:45;9.80;99.90
1570;DHT22;778;50.120;8.698;2023-04-07T13:04:18;9.80;99.90
1570;DHT22;778;50.120;8.698;2023-04-07T13:06:46;9.80;99.90
1570;DHT22;778;50.120;8.698;2023-04-07T13:09:15;9.90;99.90
1570;DHT22;778;50.120;8.698;2023-04-07T13:11:43;9.80;99.90
1570;DHT22;778;50.120;8.698;2023-04-07T13:14:12;9.90;99.90
1570;DHT22;778;50.120;8.698;2023-04-07T13:16:41;10.00;99.90
1570;DHT22;778;50.120;8.698;2023-04-07T13:19:09;10.20;99.90
1570;DHT22;778;50.120;8.698;2023-04-07T13:21:39;10.30;99.90
1570;DHT22;778;50.120;8.698;2023-04-07T13:24:13;10.40;99.90
1570;DHT22;778;50.120;8.698;2023-04-07T13:26:42;10.40;99.90
1570;DHT22;778;50.120;8.698;2023-04-07T13:29:10;10.40;99.90
1570;DHT22;778;50.120;8.698;2023-04-07T13:31:39;10.40;99.90
1570;DHT22;778;50.120;8.698;2023-04-07T13:34:07;10.40;99.90
1570;DHT22;778;50.120;8.698;2023-04-07T13:36:36;10.40;99.90
1570;DHT22;778;50.120;8.698;2023-04-07T13:39:05;10.50;99.90
1570;DHT22;778;50.120;8.698;2023-04-07T13:41:34;10.50;99.90
1570;DHT22;778;50.120;8.698;2023-04-07T13:44:03;10.50;99.90
1570;DHT22;778;50.120;8.698;2023-04-07T13:46:31;10.60;99.90
1570;DHT22;778;50.120;8.698;2023-04-07T13:49:00;10.60;99.90
1570;DHT22;778;50.120;8.698;2023-04-07T13:51:28;10.70;99.90
1570;DHT22;778;50.120;8.698;2023-04-07T13:53:56;10.80;99.90
1570;DHT22;778;50.120;8.698;2023-04-07T13:56:26;11.00;99.90
1570;DHT22;778;50.120;8.698;2023-04-07T13:58:55;11.20;99.90
1570;DHT22;778;50.120;8.698;2023-04-07T14:01:23;11.20;99.90
1570;DHT22;778;50.120;8.698;2023-04-07T14:03:52;11.30;99.90
1570;DHT22;778;50.120;8.698;2023-04-07T14:06:20;11.30;99.90
1570;DHT22;778;50.120;8.698;2023-04-07T14:08:49;11.30;99.90
1570;DHT22;778;50.120;8.698;2023-04-07T14:11:18;11.20;99.90
1570;DHT22;778;50.120;8.698;2023-04-07T14:13:50;11.10;99.90
1570;DHT22;778;50.120;8.698;2023-04-07T14:16:19;11.00;99.90
1570;DHT22;778;50.120;8.698;2023-04-07T14:18:49;10.90;99.90
1570;DHT22;778;50.120;8.698;2023-04-07T14:21:17;10.70;99.90
1570;DHT22;778;50.120;8.698;2023-04-07T14:23:45;10.70;99.90
1570;DHT22;778;50.120;8.698;2023-04-07T14:26:14;10.60;99.90
1570;DHT22;778;50.120;8.698;2023-04-07T14:28:42;10.50;99.90
1570;DHT22;778;50.120;8.698;2023-04-07T14:31:15;10.50;99.90
1570;DHT22;778;50.120;8.698;2023-04-07T14:33:44;10.50;99.90
1570;DHT22;778;50.120;8.698;2023-04-07T14:36:13;10.60;99.90
1570;DHT22;778;50.120;8.698;2023-04-07T14:38:43;10.70;99.90
1570;DHT22;778;50.120;8.698;2023-04-07T14:41:11;10.80;99.90
1570;DHT22;778;50.120;8.698;2023-04-07T14:43:40;10.90;99.90
1570;DHT22;778;50.120;8.698;2023-04-07T14:46:09;10.90;99.90
1570;DHT22;778;50.120;8.698;2023-04-07T14:48:39;10.80;99.90
1570;DHT22;778;50.120;8.698;2023-04-07T14:51:11;10.80;99.90
1570;DHT22;778;50.120;8.698;2023-04-07T14:53:40;10.80;99.90
1570;DHT22;778;50.120;8.698;2023-04-07T14:56:11;10.90;99.90
1570;DHT22;778;50.120;8.698;2023-04-07T14:58:40;10.90;99.90
1570;DHT22;778;50.120;8.698;2023-04-07T15:01:08;10.90;99.90
1570;DHT22;778;50.120;8.698;2023-04-07T15:03:37;10.80;99.90
1570;DHT22;778;50.120;8.698;2023-04-07T15:06:08;10.70;99.90
1570;DHT22;778;50.120;8.698;2023-04-07T15:08:37;10.80;99.90
1570;DHT22;778;50.120;8.698;2023-04-07T15:11:06;10.80;99.90
1570;DHT22;778;50.120;8.698;2023-04-07T15:13:35;11.00;99.90
1570;DHT22;778;50.120;8.698;2023-04-07T15:16:08;11.10;99.90
1570;DHT22;778;50.120;8.698;2023-04-07T15:18:40;11.30;99.90
1570;DHT22;778;50.120;8.698;2023-04-07T15:21:11;11.40;99.90
1570;DHT22;778;50.120;8.698;2023-04-07T15:23:40;11.50;99.90
1570;DHT22;778;50.120;8.698;2023-04-07T15:26:09;11.50;99.90
1570;DHT22;778;50.120;8.698;2023-04-07T15:28:38;11.40;99.90
1570;DHT22;778;50.120;8.698;2023-04-07T15:31:06;11.40;99.90
1570;DHT22;778;50.120;8.698;2023-04-07T15:33:36;11.50;99.90
1570;DHT22;778;50.120;8.698;2023-04-07T15:36:07;11.40;99.90
1570;DHT22;778;50.120;8.698;2023-04-07T15:38:36;11.50;99.90
1570;DHT22;778;50.120;8.698;2023-04-07T15:41:06;11.50;99.90
1570;DHT22;778;50.120;8.698;2023-04-07T15:43:35;11.60;99.90
1570;DHT22;778;50.120;8.698;2023-04-07T15:46:03;11.40;99.90
1570;DHT22;778;50.120;8.698;2023-04-07T15:48:34;11.20;99.90
1570;DHT22;778;50.120;8.698;2023-04-07T15:51:04;11.30;99.90
1570;DHT22;778;50.120;8.698;2023-04-07T15:53:33;11.20;99.90
1570;DHT22;778;50.120;8.698;2023-04-07T15:56:01;11.20;99.90
1570;DHT22;778;50.120;8.698;2023-04-07T15:58:32;11.10;99.90
1570;DHT22;778;50.120;8.698;2023-04-07T16:01:00;11.10;99.90
1570;DHT22;778;50.120;8.698;2023-04-07T16:03:30;11.10;99.90
1570;DHT22;778;50.120;8.698;2023-04-07T16:05:59;11.10;99.90
1570;DHT22;778;50.120;8.698;2023-04-07T16:08:29;11.10;99.90
1570;DHT22;778;50.120;8.698;2023-04-07T16:10:57;11.20;99.90
1570;DHT22;778;50.120;8.698;2023-04-07T16:13:26;11.10;99.90
1570;DHT22;778;50.120;8.698;2023-04-07T16:15:55;10.90;99.90
1570;DHT22;778;50.120;8.698;2023-04-07T16:18:24;10.90;99.90
1570;DHT22;778;50.120;8.698;2023-04-07T16:20:52;11.00;99.90
1570;DHT22;778;50.120;8.698;2023-04-07T16:23:21;11.00;99.90
1570;DHT22;778;50.120;8.698;2023-04-07T16:25:50;11.00;99.90
1570;DHT22;778;50.120;8.698;2023-04-07T16:28:19;11.00;99.90
1570;DHT22;778;50.120;8.698;2023-04-07T16:30:47;11.10;99.90
1570;DHT22;778;50.120;8.698;2023-04-07T16:33:16;11.10;99.90
1570;DHT22;778;50.120;8.698;2023-04-07T16:35:44;11.00;99.90
1570;DHT22;778;50.120;8.698;2023-04-07T16:38:13;10.90;99.90
1570;DHT22;778;50.120;8.698;2023-04-07T16:40:44;10.90;99.90
1570;DHT22;778;50.120;8.698;2023-04-07T16:43:30;10.80;99.90
1570;DHT22;778;50.120;8.698;2023-04-07T16:45:59;10.80;99.90
1570;DHT22;778;50.120;8.698;2023-04-07T16:48:27;10.70;99.90
1570;DHT22;778;50.120;8.698;2023-04-07T16:50:56;10.70;99.90
1570;DHT22;778;50.120;8.698;2023-04-07T16:53:24;10.70;99.90
1570;DHT22;778;50.120;8.698;2023-04-07T16:55:53;10.60;99.90
1570;DHT22;778;50.120;8.698;2023-04-07T16:58:21;10.60;99.90